createdAt,value
2023-05-10T00:01:59.925Z,15.82
2023-05-10T00:04:28.447Z,15.76
2023-05-10T00:06:55.821Z,15.81
2023-05-10T00:09:22.330Z,15.78
2023-05-10T00:11:48.797Z,15.66
2023-05-10T00:14:15.457Z,15.76
2023-05-10T00:16:42.007Z,15.69
2023-05-10T00:19:08.583Z,15.57
2023-05-10T00:21:35.038Z,15.61
2023-05-10T00:24:01.474Z,15.59
2023-05-10T00:26:27.910Z,15.58
2023-05-10T00:28:54.311Z,15.53
2023-05-10T00:31:20.833Z,15.62
2023-05-10T00:33:47.289Z,15.55
2023-05-10T00:36:13.720Z,15.45
2023-05-10T00:38:40.195Z,15.36
2023-05-10T00:41:06.675Z,15.33
2023-05-10T00:43:33.170Z,15.27
2023-05-10T00:45:59.598Z,15.25
2023-05-10T00:48:26.171Z,15.34
2023-05-10T00:50:52.804Z,15.28
2023-05-10T00:53:20.018Z,15.25
2023-05-10T00:55:46.585Z,15.26
2023-05-10T00:58:13.284Z,15.31
2023-05-10T01:00:43.271Z,15.38
2023-05-10T01:03:10.588Z,15.41
2023-05-10T01:05:37.038Z,15.33
2023-05-10T01:08:03.760Z,15.34
2023-05-10T01:10:30.702Z,15.34
2023-05-10T01:12:57.907Z,15.31
2023-05-10T01:15:24.792Z,15.32
2023-05-10T01:17:52.682Z,15.21
2023-05-10T01:20:19.475Z,15.18
2023-05-10T01:22:46.245Z,15.23
2023-05-10T01:25:23.303Z,15.23
2023-05-10T01:28:17.015Z,15.14
2023-05-10T01:31:08.387Z,15.08
2023-05-10T01:33:57.215Z,15.11
2023-05-10T01:36:52.177Z,15.08
2023-05-10T01:39:26.977Z,15.03
2023-05-10T01:42:05.180Z,15.06
2023-05-10T01:44:46.546Z,15.00
2023-05-10T01:47:18.158Z,15.06
2023-05-10T01:49:51.280Z,15.10
2023-05-10T01:52:20.783Z,15.08
2023-05-10T01:54:56.837Z,15.08
2023-05-10T01:57:28.789Z,14.98
2023-05-10T01:59:56.152Z,14.96
2023-05-10T02:02:23.846Z,14.98
2023-05-10T02:04:53.509Z,14.92
2023-05-10T02:07:21.078Z,14.85
2023-05-10T02:09:48.970Z,14.81
2023-05-10T02:12:17.011Z,14.85
2023-05-10T02:14:45.133Z,14.82
2023-05-10T02:17:13.022Z,14.78
2023-05-10T02:19:41.727Z,14.75
2023-05-10T02:22:09.902Z,14.76
2023-05-10T02:24:39.610Z,14.73
2023-05-10T02:27:07.818Z,14.74
2023-05-10T02:29:35.218Z,14.71
2023-05-10T02:32:03.390Z,14.63
2023-05-10T02:34:30.929Z,14.68
2023-05-10T02:36:57.839Z,14.62
2023-05-10T02:39:26.170Z,14.63
2023-05-10T02:41:53.980Z,14.59
2023-05-10T02:44:21.490Z,14.48
2023-05-10T02:46:48.118Z,14.49
2023-05-10T02:49:15.203Z,14.47
2023-05-10T02:51:48.552Z,14.52
2023-05-10T02:54:25.422Z,14.49
2023-05-10T02:56:57.570Z,14.54
2023-05-10T02:59:24.392Z,14.57
2023-05-10T03:01:51.165Z,14.47
2023-05-10T03:04:17.763Z,14.44
2023-05-10T03:06:44.840Z,14.43
2023-05-10T03:09:13.532Z,14.38
2023-05-10T03:12:13.910Z,14.35
2023-05-10T03:14:53.935Z,14.27
2023-05-10T03:17:26.534Z,14.22
2023-05-10T03:19:58.808Z,14.26
2023-05-10T03:22:35.295Z,14.28
2023-05-10T03:25:07.047Z,14.26
2023-05-10T03:27:35.086Z,14.28
2023-05-10T03:30:03.903Z,14.23
2023-05-10T03:32:33.113Z,14.22
2023-05-10T03:34:59.533Z,14.24
2023-05-10T03:37:25.892Z,14.30
2023-05-10T03:39:52.358Z,14.33
2023-05-10T03:42:19.416Z,14.28
2023-05-10T03:44:45.964Z,14.31
2023-05-10T03:47:12.437Z,14.33
2023-05-10T03:49:38.926Z,14.33
2023-05-10T03:52:06.308Z,14.30
2023-05-10T03:54:33.264Z,14.33
2023-05-10T03:56:59.762Z,14.28
2023-05-10T03:59:26.151Z,14.31
2023-05-10T04:01:52.901Z,14.33
2023-05-10T04:04:19.763Z,14.37
2023-05-10T04:06:46.463Z,14.39
2023-05-10T04:09:13.058Z,14.34
2023-05-10T04:11:39.527Z,14.41
2023-05-10T04:14:06.058Z,14.58
2023-05-10T04:16:32.618Z,14.67
2023-05-10T04:18:59.102Z,14.73
2023-05-10T04:21:25.718Z,14.79
2023-05-10T04:23:52.148Z,14.83
2023-05-10T04:26:18.556Z,14.87
2023-05-10T04:28:44.969Z,14.90
2023-05-10T04:31:11.484Z,14.85
2023-05-10T04:33:38.106Z,14.82
2023-05-10T04:36:05.009Z,14.83
2023-05-10T04:38:31.522Z,14.86
2023-05-10T04:41:08.615Z,14.91
2023-05-10T04:43:35.952Z,14.97
2023-05-10T04:46:02.550Z,14.89
2023-05-10T04:48:29.097Z,14.79
2023-05-10T04:50:55.830Z,14.78
2023-05-10T04:53:22.286Z,14.82
2023-05-10T04:55:49.028Z,14.82
2023-05-10T04:58:15.856Z,14.52
2023-05-10T05:00:42.712Z,14.59
2023-05-10T05:03:09.403Z,14.58
2023-05-10T05:05:35.898Z,14.57
2023-05-10T05:08:02.329Z,14.63
2023-05-10T05:10:28.989Z,14.68
2023-05-10T05:12:55.513Z,14.69
2023-05-10T05:15:22.007Z,14.87
2023-05-10T05:17:48.498Z,14.92
2023-05-10T05:20:15.892Z,14.92
2023-05-10T05:22:42.420Z,14.80
2023-05-10T05:25:09.193Z,14.82
2023-05-10T05:27:35.598Z,14.86
2023-05-10T05:30:02.091Z,14.73
2023-05-10T05:32:28.711Z,14.79
2023-05-10T05:34:55.189Z,14.77
2023-05-10T05:37:22.928Z,14.64
2023-05-10T05:39:49.571Z,14.65
2023-05-10T05:42:17.457Z,14.63
2023-05-10T05:44:43.966Z,14.58
2023-05-10T05:47:10.674Z,14.66
2023-05-10T05:49:37.336Z,14.63
2023-05-10T05:52:05.082Z,14.59
2023-05-10T05:54:32.423Z,14.67
2023-05-10T05:57:01.195Z,14.79
2023-05-10T05:59:28.532Z,14.72
2023-05-10T06:01:55.153Z,14.75
2023-05-10T06:04:21.699Z,14.57
2023-05-10T06:06:48.241Z,14.71
2023-05-10T06:09:14.703Z,14.76
2023-05-10T06:11:41.504Z,15.00
2023-05-10T06:14:08.845Z,14.94
2023-05-10T06:16:35.648Z,14.95
2023-05-10T06:19:02.339Z,14.92
2023-05-10T06:21:28.817Z,15.05
2023-05-10T06:23:55.635Z,15.17
2023-05-10T06:26:22.182Z,15.18
2023-05-10T06:28:48.980Z,15.32
2023-05-10T06:31:15.470Z,15.41
2023-05-10T06:33:41.982Z,15.58
2023-05-10T06:36:08.429Z,15.82
2023-05-10T06:38:34.886Z,15.98
2023-05-10T06:41:01.739Z,15.86
2023-05-10T06:43:29.550Z,15.98
2023-05-10T06:45:56.031Z,16.03
2023-05-10T06:48:22.681Z,16.06
2023-05-10T06:50:49.405Z,15.96
2023-05-10T06:53:16.353Z,16.07
2023-05-10T06:55:42.790Z,16.10
2023-05-10T06:58:09.194Z,16.02
2023-05-10T07:00:35.847Z,15.96
2023-05-10T07:03:02.424Z,16.00
2023-05-10T07:05:29.242Z,16.02
2023-05-10T07:07:55.673Z,15.99
2023-05-10T07:10:22.231Z,16.08
2023-05-10T07:12:48.776Z,15.97
2023-05-10T07:15:15.469Z,15.93
2023-05-10T07:17:44.844Z,15.82
2023-05-10T07:20:12.867Z,15.91
2023-05-10T07:22:39.454Z,15.99
2023-05-10T07:25:06.418Z,15.98
2023-05-10T07:27:33.560Z,15.85
2023-05-10T07:30:00.105Z,15.83
2023-05-10T07:32:26.836Z,15.96
2023-05-10T07:34:53.342Z,16.06
2023-05-10T07:37:19.881Z,16.10
2023-05-10T07:39:46.392Z,16.40
2023-05-10T07:42:12.795Z,16.51
2023-05-10T07:44:39.241Z,16.58
2023-05-10T07:47:05.673Z,16.63
2023-05-10T07:49:32.487Z,16.78
2023-05-10T07:51:59.000Z,16.74
2023-05-10T07:54:25.746Z,16.84
2023-05-10T07:56:52.211Z,16.76
2023-05-10T07:59:18.903Z,16.81
2023-05-10T08:01:46.186Z,16.93
2023-05-10T08:04:12.896Z,17.02
2023-05-10T08:06:40.677Z,17.04
2023-05-10T08:09:07.352Z,17.05
2023-05-10T08:11:35.012Z,17.09
2023-05-10T08:14:01.756Z,17.26
2023-05-10T08:16:28.564Z,17.22
2023-05-10T08:18:56.574Z,17.27
2023-05-10T08:21:23.155Z,17.42
2023-05-10T08:23:50.116Z,17.51
2023-05-10T08:26:16.607Z,17.86
2023-05-10T08:28:43.159Z,17.87
2023-05-10T08:31:09.700Z,18.02
2023-05-10T08:33:36.243Z,17.90
2023-05-10T08:36:02.693Z,18.11
2023-05-10T08:38:29.187Z,18.44
2023-05-10T08:40:59.552Z,18.31
2023-05-10T08:43:29.616Z,18.49
2023-05-10T08:45:57.720Z,18.82
2023-05-10T08:48:25.986Z,18.88
2023-05-10T08:50:56.113Z,18.54
2023-05-10T08:53:27.674Z,18.30
2023-05-10T08:55:54.383Z,18.03
2023-05-10T08:58:21.314Z,17.74
2023-05-10T09:00:49.687Z,17.29
2023-05-10T09:03:16.646Z,17.51
2023-05-10T09:05:43.534Z,17.82
2023-05-10T09:08:10.580Z,18.05
2023-05-10T09:10:38.705Z,18.31
2023-05-10T09:13:05.668Z,18.32
2023-05-10T09:15:32.337Z,18.26
2023-05-10T09:18:00.424Z,18.43
2023-05-10T09:20:26.971Z,18.76
2023-05-10T09:22:53.382Z,19.09
2023-05-10T09:25:20.628Z,19.12
2023-05-10T09:27:47.991Z,19.12
2023-05-10T09:30:26.265Z,19.39
2023-05-10T09:32:53.749Z,19.38
2023-05-10T09:35:22.751Z,19.73
2023-05-10T09:37:52.050Z,19.71
2023-05-10T09:40:20.498Z,19.70
2023-05-10T09:42:55.313Z,19.73
2023-05-10T09:45:23.007Z,19.64
2023-05-10T09:47:49.611Z,19.33
2023-05-10T09:50:16.080Z,19.45
2023-05-10T09:52:48.696Z,19.31
2023-05-10T09:55:16.663Z,19.36
2023-05-10T09:57:43.414Z,19.60
2023-05-10T10:00:14.097Z,19.65
2023-05-10T10:02:41.347Z,19.82
2023-05-10T10:05:08.012Z,19.99
2023-05-10T10:07:35.359Z,19.92
2023-05-10T10:10:01.753Z,19.88
2023-05-10T10:12:28.595Z,19.40
2023-05-10T10:14:56.228Z,19.23
2023-05-10T10:17:23.099Z,19.26
2023-05-10T10:19:50.075Z,19.30
2023-05-10T10:22:17.901Z,19.33
2023-05-10T10:24:44.387Z,19.38
2023-05-10T10:27:37.828Z,19.55
2023-05-10T10:30:30.686Z,19.72
2023-05-10T10:33:35.094Z,19.95
2023-05-10T10:36:03.598Z,20.37
2023-05-10T10:39:00.302Z,20.87
2023-05-10T10:41:36.867Z,20.67
2023-05-10T10:44:31.657Z,20.58
2023-05-10T10:47:29.959Z,20.86
2023-05-10T10:49:59.478Z,20.41
2023-05-10T10:52:41.865Z,19.97
2023-05-10T10:55:10.417Z,19.37
2023-05-10T10:57:52.686Z,18.43
2023-05-10T11:00:32.365Z,17.72
2023-05-10T11:03:09.773Z,17.63
2023-05-10T11:05:49.067Z,17.38
2023-05-10T11:08:17.422Z,17.23
2023-05-10T11:11:03.104Z,17.29
2023-05-10T11:13:30.657Z,17.37
2023-05-10T11:16:00.142Z,17.43
2023-05-10T11:18:29.569Z,17.52
2023-05-10T11:21:03.665Z,17.73
2023-05-10T11:23:48.542Z,17.77
2023-05-10T11:26:15.448Z,17.62
2023-05-10T11:28:49.275Z,17.45
2023-05-10T11:31:17.468Z,16.74
2023-05-10T11:33:48.745Z,16.39
2023-05-10T11:36:17.497Z,16.05
2023-05-10T11:38:44.571Z,16.04
2023-05-10T11:41:12.504Z,15.97
2023-05-10T11:43:42.557Z,16.01
2023-05-10T11:46:12.189Z,15.90
2023-05-10T11:48:42.070Z,15.83
2023-05-10T11:51:09.773Z,15.68
2023-05-10T11:53:36.563Z,16.02
2023-05-10T11:56:10.567Z,16.31
2023-05-10T11:58:38.922Z,16.23
2023-05-10T12:01:06.672Z,16.46
2023-05-10T12:03:33.908Z,16.92
2023-05-10T12:06:01.657Z,17.09
2023-05-10T12:08:29.007Z,16.90
2023-05-10T12:11:06.193Z,17.68
2023-05-10T12:13:32.725Z,17.64
2023-05-10T12:15:59.902Z,17.29
2023-05-10T12:18:26.457Z,17.60
2023-05-10T12:20:54.820Z,17.90
2023-05-10T12:23:22.057Z,18.15
2023-05-10T12:25:48.768Z,18.01
2023-05-10T12:28:15.120Z,18.36
2023-05-10T12:30:41.578Z,18.27
2023-05-10T12:33:10.805Z,18.16
2023-05-10T12:35:47.940Z,18.14
2023-05-10T12:38:30.398Z,18.37
2023-05-10T12:41:05.138Z,18.34
2023-05-10T12:43:32.593Z,18.27
2023-05-10T12:45:59.346Z,18.01
2023-05-10T12:48:26.023Z,18.39
2023-05-10T12:50:52.588Z,18.62
2023-05-10T12:53:19.037Z,19.05
2023-05-10T12:55:46.784Z,19.09
2023-05-10T12:58:17.929Z,19.17
2023-05-10T13:00:44.914Z,19.49
2023-05-10T13:03:11.559Z,19.53
2023-05-10T13:05:38.197Z,19.76
2023-05-10T13:08:04.731Z,19.51
2023-05-10T13:10:32.469Z,19.44
2023-05-10T13:12:59.685Z,19.23
2023-05-10T13:15:26.275Z,18.88
2023-05-10T13:17:54.066Z,18.80
2023-05-10T13:20:20.807Z,19.12
2023-05-10T13:22:47.333Z,19.18
2023-05-10T13:25:14.198Z,19.50
2023-05-10T13:27:41.422Z,19.71
2023-05-10T13:30:08.739Z,19.88
2023-05-10T13:32:35.474Z,20.10
2023-05-10T13:35:04.084Z,19.84
2023-05-10T13:37:31.588Z,19.62
2023-05-10T13:39:58.031Z,19.82
2023-05-10T13:42:24.592Z,20.02
2023-05-10T13:44:51.737Z,20.14
2023-05-10T13:47:18.126Z,20.06
2023-05-10T13:49:44.893Z,20.05
2023-05-10T13:52:11.509Z,20.09
2023-05-10T13:54:38.964Z,20.03
2023-05-10T13:57:05.978Z,19.94
2023-05-10T13:59:32.942Z,19.68
2023-05-10T14:02:05.451Z,19.59
2023-05-10T14:04:32.508Z,19.82
2023-05-10T14:06:58.980Z,19.94
2023-05-10T14:09:25.394Z,19.98
2023-05-10T14:11:52.103Z,20.09
2023-05-10T14:14:18.478Z,20.21
2023-05-10T14:16:46.029Z,20.19
2023-05-10T14:19:13.087Z,20.29
2023-05-10T14:21:39.604Z,20.21
2023-05-10T14:24:07.769Z,20.06
2023-05-10T14:26:35.440Z,20.07
2023-05-10T14:29:01.972Z,19.92
2023-05-10T14:31:28.529Z,19.70
2023-05-10T14:33:54.993Z,19.56
2023-05-10T14:36:21.408Z,19.68
2023-05-10T14:38:47.832Z,19.90
2023-05-10T14:41:16.043Z,19.96
2023-05-10T14:43:42.480Z,19.93
2023-05-10T14:46:09.703Z,20.07
2023-05-10T14:48:36.282Z,20.05
2023-05-10T14:51:03.168Z,20.21
2023-05-10T14:53:29.729Z,20.16
2023-05-10T14:55:56.280Z,20.14
2023-05-10T14:58:22.694Z,20.05
2023-05-10T15:00:49.800Z,20.13
2023-05-10T15:03:16.975Z,20.30
2023-05-10T15:05:43.870Z,20.15
2023-05-10T15:08:10.439Z,20.06
2023-05-10T15:10:37.799Z,20.22
2023-05-10T15:13:05.101Z,20.28
2023-05-10T15:15:31.939Z,20.43
2023-05-10T15:17:58.610Z,20.45
2023-05-10T15:20:25.144Z,20.19
2023-05-10T15:22:51.821Z,20.02
2023-05-10T15:25:18.473Z,19.77
2023-05-10T15:27:45.057Z,19.64
2023-05-10T15:30:11.901Z,19.70
2023-05-10T15:32:40.299Z,19.95
2023-05-10T15:35:08.926Z,19.92
2023-05-10T15:37:35.498Z,19.88
2023-05-10T15:40:04.915Z,19.86
2023-05-10T15:42:33.060Z,19.44
2023-05-10T15:45:00.156Z,19.65
2023-05-10T15:47:26.993Z,19.49
2023-05-10T15:49:53.631Z,19.57
2023-05-10T15:52:21.627Z,19.40
2023-05-10T15:54:48.307Z,19.31
2023-05-10T15:57:14.758Z,19.27
2023-05-10T15:59:41.591Z,19.23
2023-05-10T16:02:09.062Z,19.13
2023-05-10T16:04:35.533Z,18.96
2023-05-10T16:07:02.153Z,18.88
2023-05-10T16:09:28.630Z,18.79
2023-05-10T16:11:55.194Z,18.69
2023-05-10T16:14:22.911Z,18.57
2023-05-10T16:16:49.623Z,18.45
2023-05-10T16:19:16.188Z,18.24
2023-05-10T16:21:42.762Z,18.11
2023-05-10T16:24:09.235Z,17.94
2023-05-10T16:26:40.835Z,17.51
2023-05-10T16:29:08.410Z,17.07
2023-05-10T16:31:35.050Z,17.08
2023-05-10T16:34:01.869Z,17.23
2023-05-10T16:36:29.497Z,17.49
2023-05-10T16:38:56.187Z,17.66
2023-05-10T16:41:22.753Z,17.63
2023-05-10T16:43:49.282Z,17.73
2023-05-10T16:46:16.149Z,17.73
2023-05-10T16:48:42.800Z,17.72
2023-05-10T16:51:09.453Z,17.80
2023-05-10T16:53:36.378Z,17.75
2023-05-10T16:56:06.132Z,17.62
2023-05-10T16:58:33.262Z,17.55
2023-05-10T17:01:00.130Z,17.50
2023-05-10T17:03:26.744Z,17.33
2023-05-10T17:05:53.206Z,17.18
2023-05-10T17:08:19.660Z,16.95
2023-05-10T17:10:46.080Z,16.69
2023-05-10T17:13:12.515Z,16.72
2023-05-10T17:15:39.340Z,16.58
2023-05-10T17:18:07.038Z,16.62
2023-05-10T17:20:34.205Z,16.45
2023-05-10T17:23:02.678Z,16.46
2023-05-10T17:25:29.633Z,16.45
2023-05-10T17:27:56.299Z,16.23
2023-05-10T17:30:26.389Z,16.00
2023-05-10T17:32:54.146Z,15.99
2023-05-10T17:35:21.221Z,15.66
2023-05-10T17:37:47.629Z,15.65
2023-05-10T17:40:14.135Z,15.80
2023-05-10T17:42:40.868Z,15.91
2023-05-10T17:45:07.938Z,15.98
2023-05-10T17:47:34.692Z,16.03
2023-05-10T17:50:01.300Z,16.09
2023-05-10T17:52:30.858Z,16.08
2023-05-10T17:54:58.552Z,16.12
2023-05-10T17:57:25.050Z,16.12
2023-05-10T17:59:51.448Z,16.18
2023-05-10T18:02:17.859Z,16.08
2023-05-10T18:04:44.661Z,16.09
2023-05-10T18:07:11.244Z,16.08
2023-05-10T18:09:37.647Z,16.11
2023-05-10T18:12:04.590Z,16.07
2023-05-10T18:14:40.714Z,16.01
2023-05-10T18:17:08.658Z,16.06
2023-05-10T18:19:35.390Z,16.05
2023-05-10T18:22:01.888Z,16.04
2023-05-10T18:24:38.458Z,16.10
2023-05-10T18:27:09.193Z,16.04
2023-05-10T18:29:36.596Z,15.99
2023-05-10T18:32:03.308Z,15.97
2023-05-10T18:34:29.962Z,16.02
2023-05-10T18:36:56.707Z,16.02
2023-05-10T18:39:24.211Z,15.99
2023-05-10T18:41:50.637Z,15.90
2023-05-10T18:44:17.418Z,15.83
2023-05-10T18:46:43.990Z,15.80
2023-05-10T18:49:10.525Z,15.77
2023-05-10T18:51:37.067Z,15.67
2023-05-10T18:54:03.557Z,15.68
2023-05-10T18:56:30.047Z,15.65
2023-05-10T18:58:56.595Z,15.63
2023-05-10T19:01:23.011Z,15.49
2023-05-10T19:03:49.410Z,15.46
2023-05-10T19:06:15.869Z,15.43
2023-05-10T19:08:42.497Z,15.40
2023-05-10T19:11:09.076Z,15.35
2023-05-10T19:13:35.553Z,15.34
2023-05-10T19:16:04.693Z,15.26
2023-05-10T19:18:32.156Z,15.23
2023-05-10T19:20:58.899Z,15.18
2023-05-10T19:23:26.670Z,15.16
2023-05-10T19:25:53.123Z,15.17
2023-05-10T19:28:19.662Z,15.17
2023-05-10T19:30:46.135Z,15.18
2023-05-10T19:33:12.625Z,15.17
2023-05-10T19:35:39.486Z,15.15
2023-05-10T19:38:06.357Z,15.15
2023-05-10T19:40:33.025Z,15.16
2023-05-10T19:43:00.446Z,15.17
2023-05-10T19:45:27.011Z,15.17
2023-05-10T19:47:53.759Z,15.17
2023-05-10T19:50:20.306Z,15.15
2023-05-10T19:52:47.085Z,15.15
2023-05-10T19:55:15.306Z,15.09
2023-05-10T19:57:41.782Z,15.09
2023-05-10T20:00:08.830Z,15.06
2023-05-10T20:02:35.691Z,15.07
2023-05-10T20:05:02.165Z,15.09
2023-05-10T20:07:28.824Z,15.09
2023-05-10T20:09:55.295Z,15.04
2023-05-10T20:12:22.033Z,14.97
2023-05-10T20:14:48.496Z,14.99
2023-05-10T20:17:14.881Z,14.99
2023-05-10T20:19:41.581Z,14.97
2023-05-10T20:22:09.326Z,14.94
2023-05-10T20:24:36.209Z,14.96
2023-05-10T20:27:04.466Z,14.91
2023-05-10T20:29:32.422Z,14.89
2023-05-10T20:31:59.253Z,14.87
2023-05-10T20:34:26.015Z,14.85
2023-05-10T20:36:52.425Z,14.78
2023-05-10T20:39:18.840Z,14.77
2023-05-10T20:41:45.549Z,14.79
2023-05-10T20:44:12.016Z,14.81
2023-05-10T20:46:38.877Z,14.81
2023-05-10T20:49:05.585Z,14.82
2023-05-10T20:51:33.380Z,14.86
2023-05-10T20:54:01.831Z,14.84
2023-05-10T20:56:28.252Z,14.78
2023-05-10T20:58:54.642Z,14.83
2023-05-10T21:01:21.143Z,14.84
2023-05-10T21:03:47.594Z,14.80
2023-05-10T21:06:14.127Z,14.80
2023-05-10T21:08:40.557Z,14.77
2023-05-10T21:11:07.064Z,14.79
2023-05-10T21:13:33.606Z,14.73
2023-05-10T21:16:00.421Z,14.72
2023-05-10T21:18:26.896Z,14.74
2023-05-10T21:20:53.393Z,14.65
2023-05-10T21:23:19.844Z,14.60
2023-05-10T21:25:46.302Z,14.61
2023-05-10T21:28:12.680Z,14.67
2023-05-10T21:30:39.289Z,14.56
2023-05-10T21:33:05.688Z,14.54
2023-05-10T21:35:32.174Z,14.54
2023-05-10T21:37:58.668Z,14.57
2023-05-10T21:40:25.128Z,14.54
2023-05-10T21:42:52.483Z,14.52
2023-05-10T21:45:20.024Z,14.54
2023-05-10T21:47:46.753Z,14.52
2023-05-10T21:50:13.477Z,14.42
2023-05-10T21:52:40.184Z,14.38
2023-05-10T21:55:08.422Z,14.39
2023-05-10T21:57:34.970Z,14.43
2023-05-10T22:00:01.391Z,14.41
2023-05-10T22:02:29.282Z,14.41
2023-05-10T22:04:56.285Z,14.38
2023-05-10T22:07:22.759Z,14.40
2023-05-10T22:09:49.383Z,14.32
2023-05-10T22:12:15.822Z,14.32
2023-05-10T22:14:42.260Z,14.35
2023-05-10T22:17:08.813Z,14.32
2023-05-10T22:19:35.406Z,14.36
2023-05-10T22:22:01.877Z,14.37
2023-05-10T22:24:28.467Z,14.25
2023-05-10T22:26:56.013Z,14.22
2023-05-10T22:29:22.820Z,14.16
2023-05-10T22:31:49.336Z,14.18
2023-05-10T22:34:15.849Z,14.16
2023-05-10T22:36:42.366Z,14.14
2023-05-10T22:39:08.729Z,14.15
2023-05-10T22:41:35.181Z,14.16
2023-05-10T22:44:02.223Z,14.18
2023-05-10T22:46:29.639Z,14.17
2023-05-10T22:48:56.576Z,14.10
2023-05-10T22:51:23.258Z,14.10
2023-05-10T22:53:49.961Z,14.06
2023-05-10T22:56:16.594Z,14.03
2023-05-10T22:58:43.140Z,13.95
2023-05-10T23:01:09.557Z,13.98
2023-05-10T23:03:36.057Z,14.00
2023-05-10T23:06:02.477Z,13.99
2023-05-10T23:08:29.153Z,13.98
2023-05-10T23:10:56.025Z,13.98
2023-05-10T23:13:22.683Z,13.98
2023-05-10T23:15:49.192Z,14.00
2023-05-10T23:18:15.700Z,14.03
2023-05-10T23:20:42.879Z,13.97
2023-05-10T23:23:10.204Z,14.01
2023-05-10T23:25:37.578Z,14.03
2023-05-10T23:28:04.609Z,13.94
2023-05-10T23:30:31.726Z,13.91
2023-05-10T23:32:58.491Z,13.96
2023-05-10T23:35:25.016Z,13.94
2023-05-10T23:37:51.429Z,13.90
2023-05-10T23:40:18.088Z,13.95
2023-05-10T23:42:44.794Z,13.92
2023-05-10T23:45:11.538Z,13.94
2023-05-10T23:47:38.322Z,13.94
2023-05-10T23:50:05.676Z,13.90
2023-05-10T23:52:32.144Z,13.90
2023-05-10T23:54:58.634Z,13.94
2023-05-10T23:57:25.239Z,13.90
2023-05-10T23:59:51.758Z,13.82
